sensor_id;sensor_type;location;lat;lon;timestamp;pressure;altitude;pressure_sealevel;temperature;humidity
59493;BME280;45497;43.996;22.876;2023-11-21T00:00:57;100926.91;;;10.00;46.61
59493;BME280;45497;43.996;22.876;2023-11-21T00:03:24;100932.19;;;10.00;47.01
59493;BME280;45497;43.996;22.876;2023-11-21T00:05:49;100929.88;;;9.97;46.88
59493;BME280;45497;43.996;22.876;2023-11-21T00:08:18;100934.66;;;9.93;47.29
59493;BME280;45497;43.996;22.876;2023-11-21T00:10:44;100930.16;;;9.85;47.33
59493;BME280;45497;43.996;22.876;2023-11-21T00:13:09;100936.13;;;9.87;47.11
59493;BME280;45497;43.996;22.876;2023-11-21T00:15:37;100937.75;;;9.88;47.42
59493;BME280;45497;43.996;22.876;2023-11-21T00:18:03;100927.63;;;9.67;48.04
59493;BME280;45497;43.996;22.876;2023-11-21T00:20:28;100934.84;;;9.57;48.23
59493;BME280;45497;43.996;22.876;2023-11-21T00:22:54;100944.09;;;9.61;48.67
59493;BME280;45497;43.996;22.876;2023-11-21T00:25:20;100940.69;;;9.69;47.90
59493;BME280;45497;43.996;22.876;2023-11-21T00:27:45;100929.31;;;9.85;47.80
59493;BME280;45497;43.996;22.876;2023-11-21T00:30:11;100918.44;;;9.96;47.49
59493;BME280;45497;43.996;22.876;2023-11-21T00:32:37;100923.59;;;10.06;47.11
59493;BME280;45497;43.996;22.876;2023-11-21T00:35:03;100933.06;;;10.17;46.91
59493;BME280;45497;43.996;22.876;2023-11-21T00:37:29;100921.84;;;10.23;46.46
59493;BME280;45497;43.996;22.876;2023-11-21T00:39:57;100922.97;;;10.20;46.81
59493;BME280;45497;43.996;22.876;2023-11-21T00:42:23;100925.78;;;10.19;46.37
59493;BME280;45497;43.996;22.876;2023-11-21T00:44:48;100925.78;;;10.10;46.93
59493;BME280;45497;43.996;22.876;2023-11-21T00:47:14;100920.63;;;10.09;46.81
59493;BME280;45497;43.996;22.876;2023-11-21T00:49:40;100916.66;;;10.13;46.79
59493;BME280;45497;43.996;22.876;2023-11-21T00:52:06;100905.72;;;10.08;46.76
59493;BME280;45497;43.996;22.876;2023-11-21T00:54:31;100919.63;;;10.10;47.13
59493;BME280;45497;43.996;22.876;2023-11-21T00:56:57;100921.09;;;10.04;46.94
59493;BME280;45497;43.996;22.876;2023-11-21T00:59:22;100924.41;;;9.98;47.58
59493;BME280;45497;43.996;22.876;2023-11-21T01:01:48;100912.50;;;9.94;47.75
59493;BME280;45497;43.996;22.876;2023-11-21T01:04:14;100910.50;;;9.96;47.58
59493;BME280;45497;43.996;22.876;2023-11-21T01:06:39;100918.31;;;10.06;47.48
59493;BME280;45497;43.996;22.876;2023-11-21T01:09:05;100918.47;;;10.04;47.88
59493;BME280;45497;43.996;22.876;2023-11-21T01:11:34;100924.59;;;10.05;47.99
59493;BME280;45497;43.996;22.876;2023-11-21T01:14:03;100918.63;;;10.03;47.26
59493;BME280;45497;43.996;22.876;2023-11-21T01:16:29;100923.44;;;10.07;47.40
59493;BME280;45497;43.996;22.876;2023-11-21T01:18:54;100909.53;;;10.05;47.46
59493;BME280;45497;43.996;22.876;2023-11-21T01:21:20;100905.72;;;10.00;47.49
59493;BME280;45497;43.996;22.876;2023-11-21T01:23:45;100913.47;;;9.93;47.60
59493;BME280;45497;43.996;22.876;2023-11-21T01:26:12;100905.69;;;9.91;47.63
59493;BME280;45497;43.996;22.876;2023-11-21T01:28:38;100908.84;;;9.95;47.69
59493;BME280;45497;43.996;22.876;2023-11-21T01:31:03;100905.88;;;9.98;47.46
59493;BME280;45497;43.996;22.876;2023-11-21T01:33:29;100906.53;;;10.00;47.37
59493;BME280;45497;43.996;22.876;2023-11-21T01:35:55;100902.41;;;10.06;47.23
59493;BME280;45497;43.996;22.876;2023-11-21T01:38:21;100902.91;;;10.09;47.31
59493;BME280;45497;43.996;22.876;2023-11-21T01:40:47;100901.44;;;10.07;47.33
59493;BME280;45497;43.996;22.876;2023-11-21T01:43:13;100898.44;;;10.02;47.48
59493;BME280;45497;43.996;22.876;2023-11-21T01:45:38;100901.22;;;9.92;47.79
59493;BME280;45497;43.996;22.876;2023-11-21T01:48:04;100895.25;;;9.90;47.89
59493;BME280;45497;43.996;22.876;2023-11-21T01:50:32;100895.63;;;10.03;47.35
59493;BME280;45497;43.996;22.876;2023-11-21T01:52:59;100896.31;;;10.22;46.92
59493;BME280;45497;43.996;22.876;2023-11-21T01:55:27;100896.34;;;10.30;46.81
59493;BME280;45497;43.996;22.876;2023-11-21T01:57:53;100886.88;;;10.27;46.98
59493;BME280;45497;43.996;22.876;2023-11-21T02:02:55;100885.44;;;10.41;46.83
59493;BME280;45497;43.996;22.876;2023-11-21T02:05:22;100889.44;;;10.45;46.67
59493;BME280;45497;43.996;22.876;2023-11-21T02:07:47;100886.78;;;10.37;46.51
59493;BME280;45497;43.996;22.876;2023-11-21T02:10:14;100891.88;;;10.30;46.96
59493;BME280;45497;43.996;22.876;2023-11-21T02:12:43;100880.44;;;10.30;46.95
59493;BME280;45497;43.996;22.876;2023-11-21T02:15:13;100884.94;;;10.38;46.88
59493;BME280;45497;43.996;22.876;2023-11-21T02:17:47;100884.94;;;10.46;46.50
59493;BME280;45497;43.996;22.876;2023-11-21T02:20:13;100883.31;;;10.45;46.38
59493;BME280;45497;43.996;22.876;2023-11-21T02:22:53;100890.09;;;10.56;46.00
59493;BME280;45497;43.996;22.876;2023-11-21T02:25:42;100883.16;;;10.46;46.48
59493;BME280;45497;43.996;22.876;2023-11-21T02:28:08;100891.72;;;10.40;46.31
59493;BME280;45497;43.996;22.876;2023-11-21T02:30:34;100886.72;;;10.29;46.65
59493;BME280;45497;43.996;22.876;2023-11-21T02:33:00;100878.75;;;10.21;46.75
59493;BME280;45497;43.996;22.876;2023-11-21T02:35:26;100878.59;;;10.14;46.94
59493;BME280;45497;43.996;22.876;2023-11-21T02:37:52;100880.25;;;10.15;46.85
59493;BME280;45497;43.996;22.876;2023-11-21T02:40:18;100872.47;;;10.05;47.42
59493;BME280;45497;43.996;22.876;2023-11-21T02:42:49;100876.09;;;10.04;47.34
59493;BME280;45497;43.996;22.876;2023-11-21T02:45:19;100876.59;;;10.08;47.22
59493;BME280;45497;43.996;22.876;2023-11-21T02:47:46;100883.56;;;10.09;47.09
59493;BME280;45497;43.996;22.876;2023-11-21T02:50:12;100891.69;;;10.24;47.16
59493;BME280;45497;43.996;22.876;2023-11-21T02:52:38;100884.13;;;10.37;46.41
59493;BME280;45497;43.996;22.876;2023-11-21T02:55:04;100881.31;;;10.47;46.39
59493;BME280;45497;43.996;22.876;2023-11-21T02:57:29;100870.72;;;10.47;46.12
59493;BME280;45497;43.996;22.876;2023-11-21T02:59:55;100887.28;;;10.57;46.18
59493;BME280;45497;43.996;22.876;2023-11-21T03:02:21;100880.97;;;10.58;45.87
59493;BME280;45497;43.996;22.876;2023-11-21T03:04:47;100876.34;;;10.60;45.95
59493;BME280;45497;43.996;22.876;2023-11-21T03:07:18;100880.34;;;10.64;45.73
59493;BME280;45497;43.996;22.876;2023-11-21T03:09:45;100888.78;;;10.68;45.27
59493;BME280;45497;43.996;22.876;2023-11-21T03:12:11;100886.94;;;10.68;45.33
59493;BME280;45497;43.996;22.876;2023-11-21T03:14:41;100887.75;;;10.69;45.37
59493;BME280;45497;43.996;22.876;2023-11-21T03:17:06;100869.03;;;10.62;45.67
59493;BME280;45497;43.996;22.876;2023-11-21T03:19:35;100868.22;;;10.54;45.57
59493;BME280;45497;43.996;22.876;2023-11-21T03:22:02;100862.91;;;10.45;45.74
59493;BME280;45497;43.996;22.876;2023-11-21T03:24:45;100867.41;;;10.45;45.70
59493;BME280;45497;43.996;22.876;2023-11-21T03:27:11;100862.75;;;10.47;45.62
59493;BME280;45497;43.996;22.876;2023-11-21T03:29:37;100867.75;;;10.50;45.64
59493;BME280;45497;43.996;22.876;2023-11-21T03:32:03;100866.22;;;10.47;45.45
59493;BME280;45497;43.996;22.876;2023-11-21T03:34:29;100868.53;;;10.42;45.67
59493;BME280;45497;43.996;22.876;2023-11-21T03:36:54;100867.72;;;10.33;46.02
59493;BME280;45497;43.996;22.876;2023-11-21T03:39:20;100861.53;;;10.17;46.76
59493;BME280;45497;43.996;22.876;2023-11-21T03:41:46;100862.38;;;10.09;47.47
59493;BME280;45497;43.996;22.876;2023-11-21T03:44:13;100865.69;;;10.11;47.34
59493;BME280;45497;43.996;22.876;2023-11-21T03:46:38;100866.50;;;10.11;47.43
59493;BME280;45497;43.996;22.876;2023-11-21T03:49:04;100870.16;;;10.19;47.22
59493;BME280;45497;43.996;22.876;2023-11-21T03:51:29;100870.66;;;10.22;47.03
59493;BME280;45497;43.996;22.876;2023-11-21T03:53:55;100871.66;;;10.21;46.98
59493;BME280;45497;43.996;22.876;2023-11-21T03:56:21;100883.06;;;10.22;47.24
59493;BME280;45497;43.996;22.876;2023-11-21T03:58:52;100873.66;;;10.19;47.19
59493;BME280;45497;43.996;22.876;2023-11-21T04:01:24;100877.28;;;10.18;47.16
59493;BME280;45497;43.996;22.876;2023-11-21T04:03:50;100879.25;;;10.08;47.46
59493;BME280;45497;43.996;22.876;2023-11-21T04:06:17;100886.56;;;10.14;47.84
59493;BME280;45497;43.996;22.876;2023-11-21T04:08:43;100872.63;;;10.20;47.56
59493;BME280;45497;43.996;22.876;2023-11-21T04:11:10;100866.69;;;10.26;47.35
59493;BME280;45497;43.996;22.876;2023-11-21T04:13:38;100864.25;;;10.33;47.26
59493;BME280;45497;43.996;22.876;2023-11-21T04:16:05;100861.44;;;10.35;46.87
59493;BME280;45497;43.996;22.876;2023-11-21T04:18:31;100860.06;;;10.30;47.16
59493;BME280;45497;43.996;22.876;2023-11-21T04:20:57;100865.09;;;10.33;46.97
59493;BME280;45497;43.996;22.876;2023-11-21T04:23:22;100858.41;;;10.29;47.05
59493;BME280;45497;43.996;22.876;2023-11-21T04:25:51;100858.28;;;10.31;47.39
59493;BME280;45497;43.996;22.876;2023-11-21T04:28:24;100857.28;;;10.32;47.12
59493;BME280;45497;43.996;22.876;2023-11-21T04:30:50;100861.44;;;10.35;47.27
59493;BME280;45497;43.996;22.876;2023-11-21T04:33:15;100864.06;;;10.35;47.51
59493;BME280;45497;43.996;22.876;2023-11-21T04:35:41;100871.88;;;10.36;47.07
59493;BME280;45497;43.996;22.876;2023-11-21T04:38:07;100867.19;;;10.30;47.50
59493;BME280;45497;43.996;22.876;2023-11-21T04:40:33;100870.69;;;10.30;47.08
59493;BME280;45497;43.996;22.876;2023-11-21T04:42:59;100877.81;;;10.30;47.60
59493;BME280;45497;43.996;22.876;2023-11-21T04:45:24;100871.81;;;10.28;47.35
59493;BME280;45497;43.996;22.876;2023-11-21T04:47:50;100870.69;;;10.30;47.60
59493;BME280;45497;43.996;22.876;2023-11-21T04:50:16;100874.47;;;10.28;47.15
59493;BME280;45497;43.996;22.876;2023-11-21T04:52:42;100865.03;;;10.25;47.49
59493;BME280;45497;43.996;22.876;2023-11-21T04:55:08;100878.50;;;10.32;47.55
59493;BME280;45497;43.996;22.876;2023-11-21T04:57:36;100872.31;;;10.23;47.33
59493;BME280;45497;43.996;22.876;2023-11-21T05:00:02;100887.41;;;10.23;47.65
59493;BME280;45497;43.996;22.876;2023-11-21T05:02:33;100874.78;;;10.17;48.11
59493;BME280;45497;43.996;22.876;2023-11-21T05:05:04;100889.84;;;10.16;47.57
59493;BME280;45497;43.996;22.876;2023-11-21T05:07:32;100889.59;;;9.76;48.93
59493;BME280;45497;43.996;22.876;2023-11-21T05:09:57;100887.66;;;9.52;49.49
59493;BME280;45497;43.996;22.876;2023-11-21T05:12:43;100886.63;;;9.37;50.28
59493;BME280;45497;43.996;22.876;2023-11-21T05:15:09;100892.41;;;9.41;49.66
59493;BME280;45497;43.996;22.876;2023-11-21T05:17:38;100896.38;;;9.36;49.71
59493;BME280;45497;43.996;22.876;2023-11-21T05:20:10;100902.69;;;9.44;49.50
59493;BME280;45497;43.996;22.876;2023-11-21T05:22:37;100901.16;;;9.33;49.51
59493;BME280;45497;43.996;22.876;2023-11-21T05:25:03;100901.59;;;9.28;49.21
59493;BME280;45497;43.996;22.876;2023-11-21T05:27:30;100900.34;;;9.41;48.67
59493;BME280;45497;43.996;22.876;2023-11-21T05:29:59;100901.22;;;9.49;48.78
59493;BME280;45497;43.996;22.876;2023-11-21T05:32:24;100900.88;;;9.44;48.77
59493;BME280;45497;43.996;22.876;2023-11-21T05:34:51;100900.19;;;9.42;48.86
59493;BME280;45497;43.996;22.876;2023-11-21T05:37:17;100896.63;;;9.25;48.99
59493;BME280;45497;43.996;22.876;2023-11-21T05:39:43;100893.81;;;9.27;49.00
59493;BME280;45497;43.996;22.876;2023-11-21T05:42:10;100898.09;;;9.19;49.22
59493;BME280;45497;43.996;22.876;2023-11-21T05:44:37;100898.44;;;9.25;49.05
59493;BME280;45497;43.996;22.876;2023-11-21T05:47:03;100896.31;;;9.28;48.92
59493;BME280;45497;43.996;22.876;2023-11-21T05:49:33;100898.00;;;9.37;48.73
59493;BME280;45497;43.996;22.876;2023-11-21T05:52:01;100896.41;;;9.45;48.97
59493;BME280;45497;43.996;22.876;2023-11-21T05:54:27;100900.72;;;9.46;48.66
59493;BME280;45497;43.996;22.876;2023-11-21T05:56:53;100893.81;;;9.53;48.44
59493;BME280;45497;43.996;22.876;2023-11-21T05:59:19;100904.75;;;9.58;48.29
59493;BME280;45497;43.996;22.876;2023-11-21T06:01:47;100902.25;;;9.56;48.90
59493;BME280;45497;43.996;22.876;2023-11-21T06:04:13;100901.59;;;9.63;48.38
59493;BME280;45497;43.996;22.876;2023-11-21T06:06:38;100898.50;;;9.67;48.46
59493;BME280;45497;43.996;22.876;2023-11-21T06:09:04;100887.25;;;9.65;48.47
59493;BME280;45497;43.996;22.876;2023-11-21T06:11:36;100888.88;;;9.66;48.53
59493;BME280;45497;43.996;22.876;2023-11-21T06:14:02;100886.53;;;9.63;48.37
59493;BME280;45497;43.996;22.876;2023-11-21T06:16:30;100886.03;;;9.60;48.66
59493;BME280;45497;43.996;22.876;2023-11-21T06:18:56;100890.34;;;9.61;48.54
59493;BME280;45497;43.996;22.876;2023-11-21T06:21:26;100895.50;;;9.70;48.85
59493;BME280;45497;43.996;22.876;2023-11-21T06:23:52;100885.94;;;9.69;48.45
59493;BME280;45497;43.996;22.876;2023-11-21T06:26:20;100888.94;;;9.74;48.76
59493;BME280;45497;43.996;22.876;2023-11-21T06:28:46;100896.72;;;9.76;48.51
59493;BME280;45497;43.996;22.876;2023-11-21T06:31:14;100901.88;;;9.86;48.65
59493;BME280;45497;43.996;22.876;2023-11-21T06:33:39;100896.06;;;9.82;48.67
59493;BME280;45497;43.996;22.876;2023-11-21T06:36:08;100913.31;;;9.94;48.63
59493;BME280;45497;43.996;22.876;2023-11-21T06:38:37;100905.38;;;9.94;48.34
59493;BME280;45497;43.996;22.876;2023-11-21T06:41:03;100909.66;;;9.95;48.75
59493;BME280;45497;43.996;22.876;2023-11-21T06:43:29;100905.31;;;9.86;49.09
59493;BME280;45497;43.996;22.876;2023-11-21T06:45:59;100901.31;;;9.74;49.46
59493;BME280;45497;43.996;22.876;2023-11-21T06:48:25;100913.09;;;9.80;49.16
59493;BME280;45497;43.996;22.876;2023-11-21T06:50:55;100915.41;;;9.83;49.33
59493;BME280;45497;43.996;22.876;2023-11-21T06:53:21;100902.72;;;9.94;49.34
59493;BME280;45497;43.996;22.876;2023-11-21T06:55:51;100903.22;;;9.98;49.11
59493;BME280;45497;43.996;22.876;2023-11-21T06:58:17;100919.13;;;9.98;49.42
59493;BME280;45497;43.996;22.876;2023-11-21T07:00:43;100910.00;;;10.01;49.21
59493;BME280;45497;43.996;22.876;2023-11-21T07:03:13;100922.44;;;10.00;49.18
59493;BME280;45497;43.996;22.876;2023-11-21T07:05:38;100924.22;;;9.91;49.94
59493;BME280;45497;43.996;22.876;2023-11-21T07:08:04;100925.69;;;9.86;50.25
59493;BME280;45497;43.996;22.876;2023-11-21T07:10:30;100918.72;;;9.85;50.22
59493;BME280;45497;43.996;22.876;2023-11-21T07:12:56;100921.88;;;9.80;50.21
59493;BME280;45497;43.996;22.876;2023-11-21T07:15:22;100919.19;;;9.72;50.53
59493;BME280;45497;43.996;22.876;2023-11-21T07:17:50;100910.28;;;9.81;50.56
59493;BME280;45497;43.996;22.876;2023-11-21T07:20:15;100903.69;;;9.93;50.15
59493;BME280;45497;43.996;22.876;2023-11-21T07:22:42;100911.53;;;10.11;49.82
59493;BME280;45497;43.996;22.876;2023-11-21T07:25:11;100909.91;;;10.27;49.30
59493;BME280;45497;43.996;22.876;2023-11-21T07:27:37;100905.28;;;10.29;48.87
59493;BME280;45497;43.996;22.876;2023-11-21T07:30:06;100899.97;;;10.29;49.23
59493;BME280;45497;43.996;22.876;2023-11-21T07:32:35;100904.09;;;10.15;49.35
59493;BME280;45497;43.996;22.876;2023-11-21T07:35:04;100899.94;;;10.12;49.81
59493;BME280;45497;43.996;22.876;2023-11-21T07:37:31;100910.53;;;10.21;49.52
59493;BME280;45497;43.996;22.876;2023-11-21T07:39:57;100922.16;;;10.28;49.78
59493;BME280;45497;43.996;22.876;2023-11-21T07:42:23;100916.59;;;10.39;49.49
59493;BME280;45497;43.996;22.876;2023-11-21T07:44:53;100925.69;;;10.53;49.20
59493;BME280;45497;43.996;22.876;2023-11-21T07:47:19;100917.75;;;10.45;49.07
59493;BME280;45497;43.996;22.876;2023-11-21T07:49:45;100920.91;;;10.48;49.13
59493;BME280;45497;43.996;22.876;2023-11-21T07:52:14;100921.38;;;10.44;49.20
59493;BME280;45497;43.996;22.876;2023-11-21T07:54:41;100918.25;;;10.57;49.25
59493;BME280;45497;43.996;22.876;2023-11-21T07:57:10;100927.38;;;10.70;49.09
59493;BME280;45497;43.996;22.876;2023-11-21T07:59:40;100915.59;;;10.73;48.70
59493;BME280;45497;43.996;22.876;2023-11-21T08:02:08;100908.31;;;10.75;49.00
59493;BME280;45497;43.996;22.876;2023-11-21T08:04:40;100914.63;;;10.82;48.67
59493;BME280;45497;43.996;22.876;2023-11-21T08:07:06;100908.81;;;10.87;48.92
59493;BME280;45497;43.996;22.876;2023-11-21T08:09:38;100905.81;;;10.98;48.91
59493;BME280;45497;43.996;22.876;2023-11-21T08:12:04;100900.16;;;11.09;48.95
59493;BME280;45497;43.996;22.876;2023-11-21T08:14:33;100899.00;;;11.12;48.71
59493;BME280;45497;43.996;22.876;2023-11-21T08:16:58;100904.41;;;11.27;48.56
59493;BME280;45497;43.996;22.876;2023-11-21T08:19:26;100901.75;;;11.35;48.41
59493;BME280;45497;43.996;22.876;2023-11-21T08:21:55;100901.75;;;11.43;48.08
59493;BME280;45497;43.996;22.876;2023-11-21T08:24:21;100886.78;;;11.51;48.22
59493;BME280;45497;43.996;22.876;2023-11-21T08:26:52;100891.91;;;11.52;48.16
59493;BME280;45497;43.996;22.876;2023-11-21T08:29:19;100904.50;;;11.58;48.14
59493;BME280;45497;43.996;22.876;2023-11-21T08:31:48;100907.09;;;11.75;47.78
59493;BME280;45497;43.996;22.876;2023-11-21T08:34:14;100903.06;;;11.87;47.54
59493;BME280;45497;43.996;22.876;2023-11-21T08:36:43;100899.03;;;11.99;47.12
59493;BME280;45497;43.996;22.876;2023-11-21T08:39:11;100897.84;;;12.02;47.13
59493;BME280;45497;43.996;22.876;2023-11-21T08:41:38;100887.94;;;11.96;47.30
59493;BME280;45497;43.996;22.876;2023-11-21T08:44:03;100888.69;;;12.04;47.46
59493;BME280;45497;43.996;22.876;2023-11-21T08:46:36;100877.84;;;12.14;47.41
59493;BME280;45497;43.996;22.876;2023-11-21T08:49:03;100878.25;;;12.26;47.30
59493;BME280;45497;43.996;22.876;2023-11-21T08:51:31;100864.75;;;12.13;47.09
59493;BME280;45497;43.996;22.876;2023-11-21T08:54:03;100873.66;;;12.20;47.26
59493;BME280;45497;43.996;22.876;2023-11-21T08:56:39;100856.72;;;12.21;47.46
59493;BME280;45497;43.996;22.876;2023-11-21T08:59:07;100855.75;;;12.37;47.15
59493;BME280;45497;43.996;22.876;2023-11-21T09:01:40;100856.88;;;12.42;47.44
59493;BME280;45497;43.996;22.876;2023-11-21T09:04:12;100851.84;;;12.48;47.43
59493;BME280;45497;43.996;22.876;2023-11-21T09:06:43;100852.13;;;12.53;47.44
59493;BME280;45497;43.996;22.876;2023-11-21T09:09:10;100845.94;;;12.60;47.37
59493;BME280;45497;43.996;22.876;2023-11-21T09:11:40;100845.03;;;12.68;47.33
59493;BME280;45497;43.996;22.876;2023-11-21T09:14:11;100839.25;;;12.79;47.12
59493;BME280;45497;43.996;22.876;2023-11-21T09:16:41;100835.34;;;12.90;47.23
59493;BME280;45497;43.996;22.876;2023-11-21T09:19:10;100830.66;;;12.92;47.11
59493;BME280;45497;43.996;22.876;2023-11-21T09:21:38;100822.38;;;12.87;47.19
59493;BME280;45497;43.996;22.876;2023-11-21T09:24:04;100815.53;;;12.93;47.43
59493;BME280;45497;43.996;22.876;2023-11-21T09:26:32;100801.38;;;12.92;47.25
59493;BME280;45497;43.996;22.876;2023-11-21T09:28:58;100795.59;;;12.89;47.46
59493;BME280;45497;43.996;22.876;2023-11-21T09:31:27;100792.47;;;12.85;47.08
59493;BME280;45497;43.996;22.876;2023-11-21T09:33:53;100784.78;;;12.90;47.09
59493;BME280;45497;43.996;22.876;2023-11-21T09:36:23;100778.00;;;13.03;47.01
59493;BME280;45497;43.996;22.876;2023-11-21T09:38:55;100780.75;;;13.09;47.09
59493;BME280;45497;43.996;22.876;2023-11-21T09:41:37;100771.38;;;13.13;46.71
59493;BME280;45497;43.996;22.876;2023-11-21T09:44:09;100778.44;;;13.21;46.85
59493;BME280;45497;43.996;22.876;2023-11-21T09:46:41;100775.66;;;13.29;46.71
59493;BME280;45497;43.996;22.876;2023-11-21T09:49:10;100768.34;;;13.31;46.57
59493;BME280;45497;43.996;22.876;2023-11-21T09:51:43;100762.84;;;13.33;46.31
59493;BME280;45497;43.996;22.876;2023-11-21T09:54:10;100762.22;;;13.31;46.19
59493;BME280;45497;43.996;22.876;2023-11-21T09:56:39;100757.53;;;13.33;45.97
59493;BME280;45497;43.996;22.876;2023-11-21T09:59:06;100754.47;;;13.36;45.90
59493;BME280;45497;43.996;22.876;2023-11-21T10:01:40;100733.81;;;13.23;45.74
59493;BME280;45497;43.996;22.876;2023-11-21T10:04:06;100733.44;;;13.26;45.93
59493;BME280;45497;43.996;22.876;2023-11-21T10:06:38;100725.63;;;13.25;46.05
59493;BME280;45497;43.996;22.876;2023-11-21T10:09:04;100716.19;;;13.37;45.88
59493;BME280;45497;43.996;22.876;2023-11-21T10:11:41;100701.63;;;13.33;45.76
59493;BME280;45497;43.996;22.876;2023-11-21T10:14:17;100707.13;;;13.53;45.95
59493;BME280;45497;43.996;22.876;2023-11-21T10:16:45;100704.91;;;13.56;45.83
59493;BME280;45497;43.996;22.876;2023-11-21T10:19:14;100694.97;;;13.65;45.98
59493;BME280;45497;43.996;22.876;2023-11-21T10:21:41;100690.72;;;13.71;45.86
59493;BME280;45497;43.996;22.876;2023-11-21T10:24:07;100686.66;;;13.75;45.88
59493;BME280;45497;43.996;22.876;2023-11-21T10:26:34;100684.88;;;13.82;45.94
59493;BME280;45497;43.996;22.876;2023-11-21T10:29:02;100676.69;;;13.84;45.73
59493;BME280;45497;43.996;22.876;2023-11-21T10:31:31;100670.34;;;13.85;45.33
59493;BME280;45497;43.996;22.876;2023-11-21T10:34:16;100668.31;;;13.87;45.36
59493;BME280;45497;43.996;22.876;2023-11-21T10:36:42;100679.88;;;14.01;45.06
59493;BME280;45497;43.996;22.876;2023-11-21T10:39:12;100671.41;;;13.90;44.61
59493;BME280;45497;43.996;22.876;2023-11-21T10:41:39;100685.22;;;14.01;44.59
59493;BME280;45497;43.996;22.876;2023-11-21T10:44:08;100675.84;;;14.11;44.36
59493;BME280;45497;43.996;22.876;2023-11-21T10:46:37;100681.31;;;14.25;44.32
59493;BME280;45497;43.996;22.876;2023-11-21T10:49:10;100675.19;;;14.31;44.19
59493;BME280;45497;43.996;22.876;2023-11-21T10:51:43;100679.44;;;14.53;43.87
59493;BME280;45497;43.996;22.876;2023-11-21T10:54:09;100677.03;;;14.59;43.91
59493;BME280;45497;43.996;22.876;2023-11-21T10:56:39;100675.22;;;14.72;43.44
59493;BME280;45497;43.996;22.876;2023-11-21T10:59:10;100672.59;;;14.79;43.31
59493;BME280;45497;43.996;22.876;2023-11-21T11:01:42;100670.31;;;14.76;43.45
59493;BME280;45497;43.996;22.876;2023-11-21T11:04:11;100667.50;;;14.84;43.08
59493;BME280;45497;43.996;22.876;2023-11-21T11:06:43;100662.72;;;14.73;42.67
59493;BME280;45497;43.996;22.876;2023-11-21T11:09:13;100664.84;;;14.91;42.98
59493;BME280;45497;43.996;22.876;2023-11-21T11:11:46;100656.06;;;15.10;42.72
59493;BME280;45497;43.996;22.876;2023-11-21T11:14:19;100667.59;;;15.18;42.54
59493;BME280;45497;43.996;22.876;2023-11-21T11:16:45;100650.34;;;15.14;42.29
59493;BME280;45497;43.996;22.876;2023-11-21T11:19:14;100652.38;;;15.12;42.35
59493;BME280;45497;43.996;22.876;2023-11-21T11:38:14;100623.25;;;15.30;41.81
59493;BME280;45497;43.996;22.876;2023-11-21T11:40:44;100609.69;;;15.32;41.71
59493;BME280;45497;43.996;22.876;2023-11-21T11:43:10;100596.75;;;15.35;41.63
59493;BME280;45497;43.996;22.876;2023-11-21T11:45:40;100606.22;;;15.31;41.64
59493;BME280;45497;43.996;22.876;2023-11-21T11:48:14;100610.91;;;15.16;42.18
59493;BME280;45497;43.996;22.876;2023-11-21T11:51:00;100608.66;;;15.26;42.02
59493;BME280;45497;43.996;22.876;2023-11-21T11:53:37;100605.34;;;15.17;42.20
59493;BME280;45497;43.996;22.876;2023-11-21T11:56:29;100602.31;;;15.27;42.09
59493;BME280;45497;43.996;22.876;2023-11-21T11:59:00;100594.50;;;15.25;42.35
59493;BME280;45497;43.996;22.876;2023-11-21T12:01:33;100603.50;;;15.04;42.36
59493;BME280;45497;43.996;22.876;2023-11-21T12:06:43;100603.50;;;15.04;42.47
59493;BME280;45497;43.996;22.876;2023-11-21T12:09:20;100592.41;;;15.14;42.35
59493;BME280;45497;43.996;22.876;2023-11-21T12:11:52;100592.41;;;15.14;42.21
59493;BME280;45497;43.996;22.876;2023-11-21T12:14:18;100598.56;;;15.21;42.23
59493;BME280;45497;43.996;22.876;2023-11-21T12:16:48;100602.94;;;15.29;42.14
59493;BME280;45497;43.996;22.876;2023-11-21T12:19:14;100604.97;;;15.27;42.11
59493;BME280;45497;43.996;22.876;2023-11-21T12:21:40;100593.25;;;15.21;42.61
59493;BME280;45497;43.996;22.876;2023-11-21T12:24:20;100586.28;;;15.27;42.30
59493;BME280;45497;43.996;22.876;2023-11-21T12:26:46;100581.56;;;15.29;42.13
59493;BME280;45497;43.996;22.876;2023-11-21T12:29:20;100583.16;;;15.10;42.45
59493;BME280;45497;43.996;22.876;2023-11-21T12:31:49;100580.31;;;15.12;42.56
59493;BME280;45497;43.996;22.876;2023-11-21T12:34:17;100581.94;;;15.19;42.40
59493;BME280;45497;43.996;22.876;2023-11-21T12:36:43;100576.00;;;15.17;42.46
59493;BME280;45497;43.996;22.876;2023-11-21T12:39:17;100580.50;;;15.17;42.62
59493;BME280;45497;43.996;22.876;2023-11-21T12:41:44;100584.63;;;15.26;42.70
59493;BME280;45497;43.996;22.876;2023-11-21T12:44:12;100580.31;;;15.32;42.74
59493;BME280;45497;43.996;22.876;2023-11-21T12:46:42;100573.13;;;15.19;43.24
59493;BME280;45497;43.996;22.876;2023-11-21T12:49:10;100582.34;;;15.03;43.67
59493;BME280;45497;43.996;22.876;2023-11-21T12:51:43;100578.00;;;14.95;44.08
59493;BME280;45497;43.996;22.876;2023-11-21T12:54:10;100586.81;;;14.89;44.44
59493;BME280;45497;43.996;22.876;2023-11-21T12:56:39;100579.44;;;14.91;44.28
59493;BME280;45497;43.996;22.876;2023-11-21T12:59:05;100583.16;;;15.03;44.46
59493;BME280;45497;43.996;22.876;2023-11-21T13:01:30;100582.31;;;14.89;44.57
59493;BME280;45497;43.996;22.876;2023-11-21T13:03:59;100575.91;;;14.77;45.01
59493;BME280;45497;43.996;22.876;2023-11-21T13:06:27;100574.50;;;14.88;45.11
59493;BME280;45497;43.996;22.876;2023-11-21T13:08:56;100566.69;;;14.86;45.02